createdAt,value
2023-09-08T00:00:29.850Z,66.93
2023-09-08T00:03:16.901Z,66.78
2023-09-08T00:05:43.895Z,66.89
2023-09-08T00:08:11.153Z,66.42
2023-09-08T00:10:38.162Z,66.32
2023-09-08T00:13:05.539Z,66.77
2023-09-08T00:15:34.086Z,67.49
2023-09-08T00:18:01.289Z,67.91
2023-09-08T00:20:28.855Z,68.15
2023-09-08T00:23:04.779Z,68.05
2023-09-08T00:25:35.304Z,67.86
2023-09-08T00:28:02.432Z,67.59
2023-09-08T00:30:29.622Z,67.73
2023-09-08T00:32:59.466Z,67.93
2023-09-08T00:35:29.300Z,68.38
2023-09-08T00:37:56.314Z,69.34
2023-09-08T00:40:23.421Z,69.60
2023-09-08T00:42:51.132Z,70.03
2023-09-08T00:45:18.666Z,69.74
2023-09-08T00:47:46.176Z,70.22
2023-09-08T00:50:13.424Z,70.00
2023-09-08T00:52:40.795Z,70.25
2023-09-08T00:55:08.060Z,70.51
2023-09-08T00:57:35.177Z,70.73
2023-09-08T01:00:04.975Z,71.21
2023-09-08T01:02:32.695Z,71.34
2023-09-08T01:05:03.163Z,71.19
2023-09-08T01:07:31.366Z,71.56
2023-09-08T01:10:02.862Z,71.26
2023-09-08T01:12:50.066Z,71.28
2023-09-08T01:15:27.854Z,71.71
2023-09-08T01:17:57.604Z,72.16
2023-09-08T01:20:56.463Z,71.84
2023-09-08T01:23:39.925Z,71.47
2023-09-08T01:26:11.071Z,71.64
2023-09-08T01:28:40.260Z,71.85
2023-09-08T01:31:07.881Z,72.12
2023-09-08T01:33:35.254Z,72.18
2023-09-08T01:36:02.176Z,72.86
2023-09-08T01:38:29.302Z,73.27
2023-09-08T01:40:56.358Z,73.57
2023-09-08T01:43:36.622Z,73.51
2023-09-08T01:46:07.568Z,73.02
2023-09-08T01:48:47.679Z,73.27
2023-09-08T01:51:23.402Z,73.17
2023-09-08T01:53:53.432Z,73.35
2023-09-08T01:56:29.214Z,73.76
2023-09-08T01:59:44.387Z,74.21
2023-09-08T02:02:16.824Z,74.67
2023-09-08T02:04:44.143Z,75.03
2023-09-08T02:07:51.810Z,75.19
2023-09-08T02:10:30.191Z,75.23
2023-09-08T02:13:17.817Z,75.27
2023-09-08T02:15:48.065Z,75.54
2023-09-08T02:18:29.459Z,75.78
2023-09-08T02:21:22.280Z,75.60
2023-09-08T02:24:09.616Z,75.58
2023-09-08T02:27:02.643Z,75.16
2023-09-08T02:29:53.264Z,75.35
2023-09-08T02:32:30.875Z,75.76
2023-09-08T02:35:08.069Z,76.32
2023-09-08T02:37:56.434Z,76.71
2023-09-08T02:40:26.485Z,77.02
2023-09-08T02:42:59.505Z,77.24
2023-09-08T02:45:30.188Z,77.36
2023-09-08T02:48:03.390Z,77.41
2023-09-08T02:51:07.281Z,78.02
2023-09-08T02:54:17.493Z,78.05
2023-09-08T02:56:54.779Z,78.32
2023-09-08T02:59:21.952Z,78.49
2023-09-08T03:01:49.081Z,78.51
2023-09-08T03:04:16.345Z,78.31
2023-09-08T03:06:43.390Z,77.88
2023-09-08T03:09:10.510Z,78.02
2023-09-08T03:11:37.959Z,77.98
2023-09-08T03:14:05.364Z,78.13
2023-09-08T03:16:32.497Z,78.29
2023-09-08T03:19:22.906Z,78.27
2023-09-08T03:22:10.131Z,77.67
2023-09-08T03:24:37.245Z,77.70
2023-09-08T03:27:04.514Z,77.57
2023-09-08T03:29:31.634Z,78.02
2023-09-08T03:32:09.829Z,78.29
2023-09-08T03:34:41.389Z,78.22
2023-09-08T03:37:48.048Z,77.71
2023-09-08T03:40:15.699Z,77.87
2023-09-08T03:42:46.125Z,77.97
2023-09-08T03:45:45.650Z,78.38
2023-09-08T03:48:33.148Z,78.89
2023-09-08T03:51:01.189Z,79.51
2023-09-08T03:53:57.006Z,79.91
2023-09-08T03:56:50.464Z,79.77
2023-09-08T03:59:22.687Z,79.32
2023-09-08T04:01:49.903Z,79.51
2023-09-08T04:04:17.144Z,79.93
2023-09-08T04:06:57.701Z,80.23
2023-09-08T04:09:44.716Z,80.34
2023-09-08T04:12:17.710Z,80.88
2023-09-08T04:14:49.724Z,80.80
2023-09-08T04:17:34.001Z,80.46
2023-09-08T04:20:08.127Z,80.77
2023-09-08T04:22:35.721Z,81.16
2023-09-08T04:25:06.327Z,81.19
2023-09-08T04:27:45.144Z,81.28
2023-09-08T04:30:21.965Z,81.39
2023-09-08T04:32:58.951Z,81.72
2023-09-08T04:35:26.149Z,82.13
2023-09-08T04:38:16.398Z,82.32
2023-09-08T04:40:46.067Z,82.44
2023-09-08T04:43:14.323Z,82.51
2023-09-08T04:45:41.711Z,82.65
2023-09-08T04:48:10.288Z,83.07
2023-09-08T04:50:37.650Z,83.50
2023-09-08T04:53:04.860Z,83.90
2023-09-08T04:55:34.718Z,84.05
2023-09-08T04:58:01.887Z,84.05
2023-09-08T05:00:29.169Z,84.23
2023-09-08T05:02:56.964Z,84.47
2023-09-08T05:05:24.057Z,84.53
2023-09-08T05:07:53.857Z,84.61
2023-09-08T05:10:20.881Z,84.66
2023-09-08T05:12:48.321Z,84.56
2023-09-08T05:15:16.350Z,84.37
2023-09-08T05:17:47.023Z,84.19
2023-09-08T05:20:14.015Z,84.12
2023-09-08T05:22:45.408Z,83.93
2023-09-08T05:25:12.974Z,84.06
2023-09-08T05:27:39.865Z,83.90
2023-09-08T05:30:07.345Z,83.86
2023-09-08T05:32:35.500Z,83.64
2023-09-08T05:35:03.218Z,83.59
2023-09-08T05:37:32.078Z,83.50
2023-09-08T05:40:19.587Z,83.14
2023-09-08T05:42:54.340Z,83.09
2023-09-08T05:45:26.379Z,82.99
2023-09-08T05:48:02.815Z,82.71
2023-09-08T05:51:19.495Z,82.25
2023-09-08T05:53:56.615Z,81.85
2023-09-08T05:56:34.317Z,81.37
2023-09-08T05:59:10.430Z,81.01
2023-09-08T06:01:52.059Z,80.92
2023-09-08T06:04:52.605Z,80.64
2023-09-08T06:07:20.163Z,79.92
2023-09-08T06:09:47.742Z,79.09
2023-09-08T06:12:22.864Z,78.58
2023-09-08T06:14:50.406Z,78.19
2023-09-08T06:17:17.781Z,77.37
2023-09-08T06:19:52.860Z,76.83
2023-09-08T06:22:20.530Z,76.46
2023-09-08T06:25:08.028Z,75.88
2023-09-08T06:27:39.511Z,75.37
2023-09-08T06:30:11.091Z,74.98
2023-09-08T06:32:49.909Z,74.60
2023-09-08T06:35:23.441Z,73.92
2023-09-08T06:37:51.154Z,73.16
2023-09-08T06:40:53.694Z,72.92
2023-09-08T06:43:31.831Z,72.31
2023-09-08T06:46:06.609Z,72.27
2023-09-08T06:48:39.254Z,71.51
2023-09-08T06:51:49.777Z,70.77
2023-09-08T06:54:17.441Z,70.24
2023-09-08T06:56:47.679Z,70.21
2023-09-08T06:59:17.489Z,69.99
2023-09-08T07:01:45.371Z,69.59
2023-09-08T07:04:35.951Z,69.32
2023-09-08T07:07:07.710Z,68.72
2023-09-08T07:09:39.278Z,68.23
2023-09-08T07:12:09.619Z,67.66
2023-09-08T07:14:43.429Z,67.00
2023-09-08T07:17:13.580Z,66.89
2023-09-08T07:19:47.024Z,66.62
2023-09-08T07:22:14.740Z,66.43
2023-09-08T07:24:45.126Z,66.13
2023-09-08T07:27:15.024Z,66.08
2023-09-08T07:29:50.186Z,65.34
2023-09-08T07:32:18.048Z,64.96
2023-09-08T07:34:45.343Z,65.04
2023-09-08T07:37:13.282Z,64.38
2023-09-08T07:39:40.958Z,64.37
2023-09-08T07:42:09.336Z,64.01
2023-09-08T07:44:36.804Z,64.24
2023-09-08T07:47:05.493Z,64.19
2023-09-08T07:49:34.478Z,63.35
2023-09-08T07:52:13.616Z,62.76
2023-09-08T07:55:05.946Z,62.71
2023-09-08T07:57:35.918Z,62.59
2023-09-08T08:00:03.639Z,61.97
2023-09-08T08:02:57.943Z,61.85
2023-09-08T08:05:26.772Z,61.48
2023-09-08T08:07:54.083Z,60.93
2023-09-08T08:10:21.441Z,60.72
2023-09-08T08:12:49.095Z,59.72
2023-09-08T08:15:16.305Z,58.99
2023-09-08T08:17:43.610Z,58.76
2023-09-08T08:20:17.968Z,56.93
2023-09-08T08:22:48.004Z,56.80
2023-09-08T08:25:16.230Z,56.65
2023-09-08T08:27:43.511Z,55.75
2023-09-08T08:30:11.998Z,54.84
2023-09-08T08:32:39.379Z,54.10
2023-09-08T08:35:06.723Z,53.58
2023-09-08T08:37:33.848Z,53.05
2023-09-08T08:40:01.321Z,52.69
2023-09-08T08:42:34.602Z,49.41
2023-09-08T08:45:02.582Z,50.24
2023-09-08T08:47:29.943Z,49.83
2023-09-08T08:50:00.998Z,49.15
2023-09-08T08:52:28.765Z,48.67
2023-09-08T08:54:56.498Z,48.71
2023-09-08T08:57:24.175Z,47.52
2023-09-08T08:59:54.368Z,46.95
2023-09-08T09:02:22.190Z,47.56
2023-09-08T09:04:49.748Z,47.11
2023-09-08T09:07:19.070Z,46.81
2023-09-08T09:09:46.371Z,45.69
2023-09-08T09:12:15.419Z,45.65
2023-09-08T09:14:47.899Z,44.55
2023-09-08T09:17:15.756Z,43.69
2023-09-08T09:19:45.427Z,44.19
2023-09-08T09:22:15.093Z,44.69
2023-09-08T09:24:44.275Z,44.45
2023-09-08T09:27:11.755Z,44.54
2023-09-08T09:29:48.943Z,43.76
2023-09-08T09:32:17.274Z,43.50
2023-09-08T09:34:54.285Z,42.81
2023-09-08T09:37:21.877Z,43.22
2023-09-08T09:39:55.579Z,43.08
2023-09-08T09:42:23.652Z,42.47
2023-09-08T09:44:52.575Z,42.06
2023-09-08T09:47:25.239Z,42.03
2023-09-08T09:49:52.698Z,41.82
2023-09-08T09:52:32.021Z,41.59
2023-09-08T09:55:00.085Z,41.60
2023-09-08T09:57:27.865Z,41.50
2023-09-08T09:59:55.648Z,40.75
2023-09-08T10:02:23.592Z,39.68
2023-09-08T10:04:51.237Z,38.23
2023-09-08T10:07:18.745Z,38.67
2023-09-08T10:09:46.108Z,39.08
2023-09-08T10:12:16.306Z,38.59
2023-09-08T10:14:43.999Z,39.33
2023-09-08T10:17:17.930Z,39.36
2023-09-08T10:19:52.242Z,37.92
2023-09-08T10:22:26.694Z,38.24
2023-09-08T10:24:55.036Z,36.34
2023-09-08T10:27:24.383Z,36.59
2023-09-08T10:29:52.732Z,35.63
2023-09-08T10:32:21.157Z,36.85
2023-09-08T10:34:49.490Z,36.52
2023-09-08T10:37:25.449Z,37.18
2023-09-08T10:39:56.671Z,36.95
2023-09-08T10:42:26.584Z,37.37
2023-09-08T10:44:58.396Z,37.81
2023-09-08T10:47:26.304Z,37.63
2023-09-08T10:50:00.023Z,37.38
2023-09-08T10:52:28.333Z,37.99
2023-09-08T10:54:56.381Z,38.36
2023-09-08T10:57:27.726Z,36.97
2023-09-08T10:59:57.289Z,37.00
2023-09-08T11:02:39.166Z,34.71
2023-09-08T11:05:08.271Z,35.24
2023-09-08T11:07:39.222Z,34.26
2023-09-08T11:10:07.317Z,35.08
2023-09-08T11:12:43.554Z,35.08
2023-09-08T11:15:11.214Z,34.52
2023-09-08T11:17:42.695Z,35.04
2023-09-08T11:20:11.141Z,35.04
2023-09-08T11:22:39.852Z,35.39
2023-09-08T11:25:07.417Z,34.17
2023-09-08T11:27:34.984Z,33.61
2023-09-08T11:30:05.504Z,33.28
2023-09-08T11:32:33.405Z,32.70
2023-09-08T11:35:10.402Z,32.35
2023-09-08T11:37:39.152Z,32.79
2023-09-08T11:40:10.694Z,31.22
2023-09-08T11:42:38.384Z,31.08
2023-09-08T11:45:06.145Z,31.71
2023-09-08T11:47:33.500Z,31.38
2023-09-08T11:50:00.511Z,30.43
2023-09-08T11:52:28.642Z,31.67
2023-09-08T11:55:06.517Z,32.28
2023-09-08T11:57:35.130Z,31.23
2023-09-08T12:00:05.993Z,31.49
2023-09-08T12:02:37.178Z,31.65
2023-09-08T12:05:04.784Z,31.35
2023-09-08T12:07:31.838Z,31.06
2023-09-08T12:09:59.743Z,31.15
2023-09-08T12:12:27.419Z,29.76
2023-09-08T12:14:58.117Z,30.19
2023-09-08T12:17:26.902Z,30.40
2023-09-08T12:20:15.434Z,30.69
2023-09-08T12:23:02.561Z,30.54
2023-09-08T12:25:38.575Z,30.31
2023-09-08T12:28:06.308Z,30.15
2023-09-08T12:30:33.803Z,29.76
2023-09-08T12:33:02.270Z,29.59
2023-09-08T12:35:32.422Z,29.78
2023-09-08T12:38:01.255Z,30.15
2023-09-08T12:40:29.228Z,29.60
2023-09-08T12:43:01.637Z,29.26
2023-09-08T12:45:37.169Z,28.52
2023-09-08T12:48:08.380Z,28.45
2023-09-08T12:50:39.151Z,26.44
2023-09-08T12:53:06.311Z,26.78
2023-09-08T12:55:33.408Z,27.57
2023-09-08T12:58:00.468Z,27.99
2023-09-08T13:00:28.674Z,28.31
2023-09-08T13:02:55.806Z,28.44
2023-09-08T13:05:23.041Z,28.57
2023-09-08T13:07:50.060Z,27.73
2023-09-08T13:10:17.069Z,27.13
2023-09-08T13:12:44.508Z,27.74
2023-09-08T13:15:12.334Z,27.58
2023-09-08T13:17:39.520Z,27.47
2023-09-08T13:20:07.727Z,27.51
2023-09-08T13:22:35.115Z,27.91
2023-09-08T13:25:02.367Z,28.22
2023-09-08T13:27:29.649Z,28.07
2023-09-08T13:30:13.322Z,27.94
2023-09-08T13:32:40.772Z,27.57
2023-09-08T13:35:08.306Z,27.20
2023-09-08T13:37:35.428Z,27.80
2023-09-08T13:40:04.561Z,28.47
2023-09-08T13:42:31.752Z,28.25
2023-09-08T13:44:59.205Z,27.98
2023-09-08T13:47:26.867Z,27.46
2023-09-08T13:49:55.807Z,27.39
2023-09-08T13:52:28.677Z,27.24
2023-09-08T13:57:29.844Z,27.47
2023-09-08T13:59:58.352Z,27.52
2023-09-08T14:05:00.571Z,27.74
2023-09-08T14:07:36.690Z,28.01
2023-09-08T14:12:38.231Z,27.63
2023-09-08T14:15:05.789Z,27.67
2023-09-08T14:17:32.999Z,26.81
2023-09-08T14:20:00.193Z,26.92
2023-09-08T14:22:27.453Z,27.51
2023-09-08T14:24:54.571Z,27.72
2023-09-08T14:27:22.076Z,27.34
2023-09-08T14:29:48.917Z,27.38
2023-09-08T14:32:16.077Z,27.59
2023-09-08T14:34:43.449Z,27.40
2023-09-08T14:37:11.623Z,26.87
2023-09-08T14:39:39.138Z,26.93
2023-09-08T14:42:06.242Z,27.14
2023-09-08T14:44:33.339Z,27.30
2023-09-08T14:47:00.341Z,26.94
2023-09-08T14:49:27.347Z,26.37
2023-09-08T14:51:54.447Z,27.30
2023-09-08T14:54:22.221Z,26.86
2023-09-08T14:56:49.310Z,27.57
2023-09-08T14:59:16.431Z,27.45
2023-09-08T15:01:45.346Z,27.68
2023-09-08T15:04:12.636Z,27.67
2023-09-08T15:06:39.841Z,27.46
2023-09-08T15:09:06.798Z,27.43
2023-09-08T15:11:33.949Z,27.79
2023-09-08T15:14:01.159Z,27.98
2023-09-08T15:16:28.469Z,27.97
2023-09-08T15:18:58.002Z,27.30
2023-09-08T15:21:28.207Z,27.57
2023-09-08T15:23:55.151Z,27.77
2023-09-08T15:26:22.579Z,28.18
2023-09-08T15:28:49.653Z,27.89
2023-09-08T15:31:17.835Z,27.76
2023-09-08T15:33:45.353Z,27.96
2023-09-08T15:36:12.549Z,28.53
2023-09-08T15:38:39.531Z,28.24
2023-09-08T15:41:06.502Z,28.04
2023-09-08T15:43:34.070Z,28.13
2023-09-08T15:46:01.304Z,28.84
2023-09-08T15:48:28.471Z,29.40
2023-09-08T15:50:55.510Z,30.75
2023-09-08T15:53:22.601Z,31.12
2023-09-08T15:55:49.566Z,32.20
2023-09-08T15:58:16.729Z,32.49
2023-09-08T16:00:43.995Z,32.71
2023-09-08T16:03:11.452Z,32.41
2023-09-08T16:05:39.410Z,32.74
2023-09-08T16:08:06.739Z,33.40
2023-09-08T16:10:34.950Z,34.65
2023-09-08T16:13:01.862Z,35.78
2023-09-08T16:15:29.113Z,36.79
2023-09-08T16:17:57.421Z,37.82
2023-09-08T16:20:24.574Z,38.85
2023-09-08T16:22:51.376Z,39.43
2023-09-08T16:25:18.367Z,40.03
2023-09-08T16:27:45.952Z,40.61
2023-09-08T16:30:13.112Z,41.75
2023-09-08T16:32:40.626Z,42.25
2023-09-08T16:35:08.312Z,43.07
2023-09-08T16:37:35.328Z,43.44
2023-09-08T16:40:03.231Z,44.14
2023-09-08T16:42:30.186Z,44.77
2023-09-08T16:44:57.169Z,45.54
2023-09-08T16:47:25.894Z,46.57
2023-09-08T16:49:53.487Z,47.16
2023-09-08T16:52:22.129Z,47.98
2023-09-08T16:54:49.285Z,48.56
2023-09-08T16:57:16.740Z,49.15
2023-09-08T16:59:43.724Z,49.75
2023-09-08T17:02:10.928Z,50.31
2023-09-08T17:04:38.368Z,51.01
2023-09-08T17:07:05.770Z,51.48
2023-09-08T17:09:32.739Z,51.85
2023-09-08T17:11:59.947Z,52.35
2023-09-08T17:14:27.002Z,52.54
2023-09-08T17:16:54.209Z,52.97
2023-09-08T17:19:21.354Z,53.20
2023-09-08T17:21:48.571Z,53.38
2023-09-08T17:24:15.502Z,53.60
2023-09-08T17:26:42.566Z,53.86
2023-09-08T17:29:09.678Z,53.75
2023-09-08T17:31:36.771Z,53.87
2023-09-08T17:34:06.857Z,53.82
2023-09-08T17:36:33.779Z,53.53
2023-09-08T17:39:00.815Z,53.79
2023-09-08T17:41:27.952Z,54.26
2023-09-08T17:43:55.209Z,54.41
2023-09-08T17:46:22.454Z,53.75
2023-09-08T17:48:49.760Z,53.86
2023-09-08T17:51:16.997Z,54.27
2023-09-08T17:53:44.044Z,54.74
2023-09-08T17:56:11.399Z,55.11
2023-09-08T17:58:38.679Z,55.43
2023-09-08T18:01:05.896Z,55.88
2023-09-08T18:03:33.314Z,56.11
2023-09-08T18:06:00.644Z,56.21
2023-09-08T18:08:27.769Z,56.46
2023-09-08T18:11:02.469Z,57.05
2023-09-08T18:13:29.954Z,57.26
2023-09-08T18:16:01.129Z,57.23
2023-09-08T18:18:28.449Z,57.27
2023-09-08T18:20:55.752Z,57.34
2023-09-08T18:23:22.804Z,57.40
2023-09-08T18:25:50.292Z,57.57
2023-09-08T18:28:17.533Z,57.54
2023-09-08T18:30:45.014Z,57.10
2023-09-08T18:33:12.181Z,57.76
2023-09-08T18:35:40.693Z,58.30
2023-09-08T18:38:09.373Z,58.31
2023-09-08T18:40:36.275Z,58.22
2023-09-08T18:43:03.847Z,58.36
2023-09-08T18:45:30.870Z,58.69
2023-09-08T18:47:58.208Z,58.90
2023-09-08T18:50:25.616Z,58.90
2023-09-08T18:52:55.414Z,58.56
2023-09-08T18:55:22.522Z,58.64
2023-09-08T18:57:49.543Z,58.93
2023-09-08T19:00:17.003Z,59.07
2023-09-08T19:02:44.461Z,59.45
2023-09-08T19:05:12.806Z,59.97
2023-09-08T19:07:40.180Z,60.34
2023-09-08T19:10:09.000Z,60.98
2023-09-08T19:12:36.287Z,61.20
2023-09-08T19:15:03.828Z,61.13
2023-09-08T19:17:51.223Z,60.97
2023-09-08T19:20:19.011Z,60.98
2023-09-08T19:23:06.740Z,61.54
2023-09-08T19:25:36.438Z,61.35
2023-09-08T19:28:03.943Z,61.46
2023-09-08T19:30:37.696Z,62.06
2023-09-08T19:33:15.273Z,62.53
2023-09-08T19:35:42.355Z,62.50
2023-09-08T19:38:09.353Z,62.21
2023-09-08T19:40:36.810Z,62.14
2023-09-08T19:43:09.869Z,62.19
2023-09-08T19:45:42.812Z,62.77
2023-09-08T19:48:41.442Z,63.62
2023-09-08T19:51:22.957Z,64.09
2023-09-08T19:54:14.312Z,64.75
2023-09-08T19:56:49.981Z,64.54
2023-09-08T19:59:18.851Z,64.49
2023-09-08T20:01:49.616Z,64.79
2023-09-08T20:04:22.388Z,64.93
2023-09-08T20:07:09.818Z,65.27
2023-09-08T20:09:36.946Z,65.47
2023-09-08T20:12:03.950Z,65.20
2023-09-08T20:14:31.287Z,64.96
2023-09-08T20:17:50.305Z,65.21
2023-09-08T20:20:41.082Z,65.64
2023-09-08T20:23:31.978Z,66.12
2023-09-08T20:26:42.816Z,66.40
2023-09-08T20:29:21.001Z,65.94
2023-09-08T20:32:15.044Z,65.91
2023-09-08T20:34:42.165Z,65.57
2023-09-08T20:37:12.732Z,65.95
2023-09-08T20:39:39.715Z,65.88
2023-09-08T20:42:07.144Z,65.95
2023-09-08T20:44:34.419Z,66.33
2023-09-08T20:47:02.083Z,66.67
2023-09-08T20:49:32.499Z,66.53
2023-09-08T20:52:20.125Z,66.50
2023-09-08T20:54:47.486Z,66.95
2023-09-08T20:57:19.449Z,66.97
2023-09-08T20:59:46.703Z,66.75
2023-09-08T21:02:18.775Z,66.99
2023-09-08T21:04:46.137Z,67.38
2023-09-08T21:07:13.599Z,67.63
2023-09-08T21:09:40.910Z,67.57
2023-09-08T21:12:12.932Z,67.26
2023-09-08T21:15:03.621Z,66.97
2023-09-08T21:17:51.384Z,67.36
2023-09-08T21:20:18.906Z,67.74
2023-09-08T21:22:49.746Z,68.21
2023-09-08T21:25:23.449Z,68.56
2023-09-08T21:28:08.277Z,68.85
2023-09-08T21:30:35.473Z,68.81
2023-09-08T21:33:06.177Z,68.29
2023-09-08T21:35:39.708Z,68.32
2023-09-08T21:38:17.191Z,68.60
2023-09-08T21:41:00.412Z,68.92
2023-09-08T21:43:53.104Z,68.69
2023-09-08T21:46:26.351Z,68.92
2023-09-08T21:48:54.042Z,69.09
2023-09-08T21:51:23.639Z,68.57
2023-09-08T21:54:02.615Z,68.78
2023-09-08T21:56:39.943Z,69.07
2023-09-08T21:59:07.566Z,69.38
2023-09-08T22:01:38.329Z,69.79
2023-09-08T22:04:12.130Z,69.36
2023-09-08T22:06:42.481Z,69.62
2023-09-08T22:09:09.850Z,69.84
2023-09-08T22:11:57.362Z,69.88
2023-09-08T22:14:24.974Z,69.81
2023-09-08T22:16:55.568Z,69.84
2023-09-08T22:19:23.163Z,69.42
2023-09-08T22:21:50.717Z,69.40
2023-09-08T22:24:18.179Z,69.83
2023-09-08T22:26:45.354Z,70.25
2023-09-08T22:29:12.808Z,70.37
2023-09-08T22:31:40.240Z,70.35
2023-09-08T22:34:07.775Z,70.84
2023-09-08T22:36:35.374Z,70.64
2023-09-08T22:39:05.237Z,70.71
2023-09-08T22:41:32.599Z,70.52
2023-09-08T22:43:59.748Z,70.26
2023-09-08T22:46:26.990Z,70.14
2023-09-08T22:48:57.193Z,70.07
2023-09-08T22:51:27.003Z,70.58
2023-09-08T22:53:54.368Z,70.90
2023-09-08T22:56:21.731Z,71.19
2023-09-08T22:58:49.093Z,71.65
2023-09-08T23:01:16.775Z,71.51
2023-09-08T23:03:44.343Z,71.40
2023-09-08T23:06:13.183Z,71.71
2023-09-08T23:08:40.307Z,72.19
2023-09-08T23:11:07.743Z,71.80
2023-09-08T23:13:35.701Z,71.76
2023-09-08T23:16:03.973Z,72.13
2023-09-08T23:18:34.010Z,72.55
2023-09-08T23:21:04.870Z,72.57
2023-09-08T23:23:42.440Z,72.53
2023-09-08T23:26:09.635Z,72.67
2023-09-08T23:28:36.962Z,72.83
2023-09-08T23:31:04.366Z,72.80
2023-09-08T23:33:32.463Z,72.38
2023-09-08T23:35:59.956Z,72.73
2023-09-08T23:38:29.836Z,72.99
2023-09-08T23:40:57.347Z,73.17
2023-09-08T23:43:33.603Z,72.64
2023-09-08T23:46:01.097Z,72.86
2023-09-08T23:48:37.445Z,72.87
2023-09-08T23:51:04.610Z,72.98
2023-09-08T23:53:31.735Z,73.02
2023-09-08T23:56:01.050Z,72.84
2023-09-08T23:58:28.455Z,72.78
